Terminal Aerodrome Forecast
Issued by NWS

Home | Current Version | Previous Version | Text Only | Print | Product List | Glossary On
Versions: 1 2 3 4 5 6 7 8 9 10 11 12
000
FTAK31 PAJN 011700
TAFAKT
TAF
PAKT 011721Z 0118/0218 31007KT P6SM SCT150
     FM012200 VRB05KT P6SM SCT070 SCT200
     FM020300 14008KT P6SM BKN060 OVC100
     FM020900 15010KT P6SM -RA SCT025 OVC050
     FM021200 15014G21KT 6SM -RA BR SCT012 OVC025
     FM021600 15014G21KT 4SM -RA BR SCT007 OVC015
      AMD LTD TO CLD VIS AND WIND 0206/0215=

USA.gov is the U.S. government's official web portal to all federal, state and local government web resources and services.